createdAt,value
2022-11-14T00:00:43.562Z,8.82
2022-11-14T00:03:29.100Z,4.25
2022-11-14T00:06:14.530Z,4.85
2022-11-14T00:09:00.535Z,3.22
2022-11-14T00:11:45.863Z,3.55
2022-11-14T00:14:32.140Z,3.88
2022-11-14T00:17:18.021Z,5.77
2022-11-14T00:20:05.323Z,8.77
2022-11-14T00:22:50.637Z,9.18
2022-11-14T00:25:35.965Z,8.65
2022-11-14T00:28:21.587Z,13.23
2022-11-14T00:31:07.020Z,8.50
2022-11-14T00:33:52.692Z,10.93
2022-11-14T00:36:38.038Z,9.02
2022-11-14T00:39:23.696Z,10.70
2022-11-14T00:42:09.234Z,10.90
2022-11-14T00:44:54.825Z,10.55
2022-11-14T00:47:40.379Z,10.55
2022-11-14T00:50:25.898Z,8.82
2022-11-14T00:53:11.598Z,9.48
2022-11-14T00:55:56.833Z,7.75
2022-11-14T00:58:42.304Z,9.13
2022-11-14T01:01:27.795Z,10.52
2022-11-14T01:04:13.348Z,6.43
2022-11-14T01:06:58.814Z,6.13
2022-11-14T01:09:44.376Z,5.22
2022-11-14T01:12:29.462Z,5.13
2022-11-14T01:15:15.077Z,6.00
2022-11-14T01:18:00.604Z,5.30
2022-11-14T01:20:47.344Z,4.53
2022-11-14T01:23:32.778Z,5.38
2022-11-14T01:26:17.920Z,7.80
2022-11-14T01:29:03.187Z,7.35
2022-11-14T01:31:48.304Z,7.65
2022-11-14T01:34:33.531Z,6.63
2022-11-14T01:37:18.527Z,6.53
2022-11-14T01:40:04.185Z,8.27
2022-11-14T01:43:17.201Z,7.95
2022-11-14T01:46:24.059Z,9.82
2022-11-14T01:49:21.949Z,8.90
2022-11-14T01:52:18.051Z,9.85
2022-11-14T01:55:07.088Z,9.30
2022-11-14T01:57:52.604Z,10.48
2022-11-14T02:00:38.381Z,12.07
2022-11-14T02:03:24.471Z,10.23
2022-11-14T02:06:13.125Z,10.73
2022-11-14T02:09:02.351Z,9.32
2022-11-14T02:11:48.201Z,7.60
2022-11-14T02:14:35.588Z,9.35
2022-11-14T02:20:21.527Z,7.53
2022-11-14T02:23:06.764Z,7.93
2022-11-14T02:25:52.838Z,8.40
2022-11-14T02:28:38.213Z,9.35
2022-11-14T02:31:23.796Z,6.00
2022-11-14T02:34:08.982Z,8.82
2022-11-14T02:36:54.476Z,7.03
2022-11-14T02:39:39.523Z,13.13
2022-11-14T02:42:25.274Z,10.57
2022-11-14T02:45:12.570Z,10.32
2022-11-14T02:50:43.688Z,8.32
2022-11-14T02:53:28.865Z,7.18
2022-11-14T02:56:14.077Z,8.35
2022-11-14T02:58:59.455Z,9.07
2022-11-14T03:01:44.703Z,8.88
2022-11-14T03:04:30.119Z,7.47
2022-11-14T03:07:15.720Z,8.27
2022-11-14T03:10:01.134Z,7.97
2022-11-14T03:12:46.468Z,9.43
2022-11-14T03:15:31.715Z,8.95
2022-11-14T03:18:17.135Z,9.13
2022-11-14T03:21:10.888Z,9.65
2022-11-14T03:23:56.015Z,7.03
2022-11-14T03:26:41.683Z,7.68
2022-11-14T03:29:27.023Z,6.20
2022-11-14T03:32:12.400Z,4.95
2022-11-14T03:34:59.013Z,5.00
2022-11-14T03:37:44.411Z,4.55
2022-11-14T03:40:29.720Z,5.72
2022-11-14T03:43:15.148Z,6.50
2022-11-14T03:46:02.482Z,6.63
2022-11-14T03:48:48.182Z,8.35
2022-11-14T03:51:33.898Z,7.60
2022-11-14T03:54:19.358Z,6.85
2022-11-14T03:57:04.830Z,5.85
2022-11-14T03:59:50.635Z,6.80
2022-11-14T04:02:36.384Z,5.90
2022-11-14T04:05:23.089Z,6.45
2022-11-14T04:08:08.506Z,8.23
2022-11-14T04:10:53.741Z,5.97
2022-11-14T04:13:39.048Z,7.00
2022-11-14T04:16:24.430Z,7.43
2022-11-14T04:19:10.177Z,8.70
2022-11-14T04:21:55.668Z,7.35
2022-11-14T04:24:41.031Z,6.07
2022-11-14T04:27:26.688Z,6.88
2022-11-14T04:30:12.218Z,5.95
2022-11-14T04:32:57.929Z,7.47
2022-11-14T04:35:43.371Z,5.75
2022-11-14T04:38:29.034Z,7.78
2022-11-14T04:41:14.438Z,5.78
2022-11-14T04:43:59.710Z,5.25
2022-11-14T04:46:45.283Z,5.85
2022-11-14T04:49:31.190Z,5.13
2022-11-14T04:52:16.420Z,5.32
2022-11-14T04:55:01.998Z,6.35
2022-11-14T04:57:47.249Z,6.30
2022-11-14T05:00:32.587Z,7.20
2022-11-14T05:03:18.245Z,6.90
2022-11-14T05:06:04.470Z,6.97
2022-11-14T05:08:50.018Z,6.20
2022-11-14T05:11:35.081Z,7.20
2022-11-14T05:14:20.713Z,8.57
2022-11-14T05:17:06.025Z,8.75
2022-11-14T05:19:51.677Z,8.02
2022-11-14T05:22:37.081Z,7.30
2022-11-14T05:25:23.397Z,8.15
2022-11-14T05:28:08.828Z,8.05
2022-11-14T05:31:01.127Z,8.50
2022-11-14T05:33:47.155Z,7.65
2022-11-14T05:36:32.825Z,7.73
2022-11-14T05:39:18.358Z,7.10
2022-11-14T05:42:03.745Z,6.90
2022-11-14T05:44:49.620Z,11.27
2022-11-14T05:47:34.924Z,8.60
2022-11-14T05:50:20.614Z,9.68
2022-11-14T05:53:06.124Z,9.98
2022-11-14T05:55:51.158Z,9.73
2022-11-14T05:58:37.238Z,9.23
2022-11-14T06:01:22.434Z,7.38
2022-11-14T06:04:07.582Z,7.60
2022-11-14T06:06:52.892Z,6.75
2022-11-14T06:09:38.120Z,7.40
2022-11-14T06:12:23.704Z,7.13
2022-11-14T06:15:09.642Z,7.28
2022-11-14T06:17:55.064Z,6.80
2022-11-14T06:20:40.469Z,7.25
2022-11-14T06:23:25.922Z,6.15
2022-11-14T06:26:20.716Z,5.93
2022-11-14T06:29:05.752Z,7.28
2022-11-14T06:31:50.829Z,6.20
2022-11-14T06:34:36.169Z,5.97
2022-11-14T06:37:21.435Z,6.47
2022-11-14T06:40:07.620Z,7.10
2022-11-14T06:42:55.986Z,6.80
2022-11-14T06:45:42.068Z,7.55
2022-11-14T06:48:27.647Z,8.27
2022-11-14T06:51:15.335Z,8.07
2022-11-14T06:54:00.944Z,8.45
2022-11-14T06:56:46.402Z,8.98
2022-11-14T06:59:31.641Z,9.50
2022-11-14T07:02:21.749Z,10.35
2022-11-14T07:05:07.726Z,9.73
2022-11-14T07:07:53.322Z,9.80
2022-11-14T07:10:39.457Z,11.88
2022-11-14T07:13:24.934Z,11.93
2022-11-14T07:16:09.996Z,13.25
2022-11-14T07:18:56.605Z,13.75
2022-11-14T07:21:42.170Z,13.98
2022-11-14T07:24:27.603Z,16.35
2022-11-14T07:27:13.031Z,18.70
2022-11-14T07:29:58.166Z,18.38
2022-11-14T07:32:43.419Z,19.80
2022-11-14T07:35:28.856Z,21.17
2022-11-14T07:38:14.273Z,22.75
2022-11-14T07:41:05.816Z,24.42
2022-11-14T07:43:51.787Z,25.15
2022-11-14T07:47:12.102Z,25.92
2022-11-14T07:49:57.508Z,25.42
2022-11-14T07:52:42.872Z,26.08
2022-11-14T07:55:28.150Z,29.58
2022-11-14T07:58:13.707Z,29.60
2022-11-14T08:01:02.862Z,31.52
2022-11-14T08:03:48.577Z,33.92
2022-11-14T08:07:06.896Z,35.55
2022-11-14T08:09:52.084Z,37.83
2022-11-14T08:12:39.779Z,38.20
2022-11-14T08:15:24.964Z,39.47
2022-11-14T08:18:10.468Z,39.03
2022-11-14T08:20:57.730Z,40.97
2022-11-14T08:23:45.330Z,37.92
2022-11-14T08:26:34.276Z,39.08
2022-11-14T08:29:20.396Z,39.42
2022-11-14T08:32:05.732Z,39.70
2022-11-14T08:34:50.906Z,37.92
2022-11-14T08:37:36.251Z,36.33
2022-11-14T08:40:21.552Z,32.85
2022-11-14T08:43:07.069Z,33.92
2022-11-14T08:45:52.271Z,33.33
2022-11-14T08:48:37.451Z,35.13
2022-11-14T08:51:22.765Z,32.03
2022-11-14T08:54:08.415Z,31.23
2022-11-14T08:56:53.923Z,33.63
2022-11-14T08:59:39.388Z,33.30
2022-11-14T09:02:24.711Z,31.90
2022-11-14T09:05:10.624Z,32.88
2022-11-14T09:07:56.217Z,32.60
2022-11-14T09:10:41.638Z,32.13
2022-11-14T09:13:27.811Z,31.23
2022-11-14T09:16:13.952Z,28.95
2022-11-14T09:18:59.804Z,28.85
2022-11-14T09:21:45.564Z,30.05
2022-11-14T09:24:31.612Z,27.65
2022-11-14T09:27:17.284Z,29.02
2022-11-14T09:30:02.829Z,27.33
2022-11-14T09:32:48.708Z,25.67
2022-11-14T09:35:34.411Z,25.85
2022-11-14T09:38:20.174Z,24.38
2022-11-14T09:41:45.218Z,24.35
2022-11-14T10:17:48.046Z,20.40
2022-11-14T10:20:35.406Z,20.45
2022-11-14T10:23:47.045Z,23.60
2022-11-14T10:26:38.560Z,23.23
2022-11-14T10:29:51.313Z,25.05
2022-11-14T10:32:48.636Z,23.63
2022-11-14T10:35:44.073Z,21.67
2022-11-14T10:38:36.908Z,21.40
2022-11-14T10:41:49.885Z,21.67
2022-11-14T10:44:38.406Z,20.52
2022-11-14T10:47:25.698Z,21.48
2022-11-14T10:50:23.266Z,22.05
2022-11-14T10:53:23.822Z,21.42
2022-11-14T10:56:12.964Z,21.88
2022-11-14T10:58:58.432Z,22.17
2022-11-14T11:01:46.571Z,22.25
2022-11-14T11:04:35.514Z,21.38
2022-11-14T11:07:45.093Z,20.63
2022-11-14T11:10:50.118Z,20.67
2022-11-14T11:13:36.830Z,21.15
2022-11-14T11:16:24.529Z,20.75
2022-11-14T11:19:27.263Z,19.73
2022-11-14T11:22:39.188Z,17.00
2022-11-14T11:25:27.880Z,16.55
2022-11-14T11:28:22.041Z,18.77
2022-11-14T11:31:09.854Z,18.13
2022-11-14T11:33:55.607Z,18.33
2022-11-14T11:36:47.416Z,19.35
2022-11-14T11:39:39.655Z,17.25
2022-11-14T11:43:23.777Z,16.60
2022-11-14T11:45:43.645Z,18.73
2022-11-14T11:48:38.277Z,20.38
2022-11-14T11:51:27.136Z,17.10
2022-11-14T11:54:22.806Z,18.50
2022-11-14T11:57:20.088Z,18.40
2022-11-14T12:00:22.011Z,22.60
2022-11-14T12:03:14.188Z,21.50
2022-11-14T12:06:24.858Z,21.40
2022-11-14T12:09:48.659Z,23.05
2022-11-14T12:12:44.862Z,20.48
2022-11-14T12:15:55.956Z,21.65
2022-11-14T12:19:03.078Z,21.80
2022-11-14T12:21:59.077Z,20.10
2022-11-14T12:25:06.195Z,14.05
2022-11-14T12:28:08.621Z,16.58
2022-11-14T12:30:59.938Z,17.73
2022-11-14T12:34:01.117Z,16.80
2022-11-14T12:36:47.245Z,17.27
2022-11-14T12:39:33.230Z,14.75
2022-11-14T12:42:21.329Z,17.33
2022-11-14T12:45:42.030Z,16.70
2022-11-14T12:48:27.330Z,14.52
2022-11-14T12:51:30.321Z,15.07
2022-11-14T12:54:43.704Z,16.08
2022-11-14T12:58:19.096Z,16.25
2022-11-14T13:01:11.112Z,16.73
2022-11-14T13:04:23.851Z,15.52
2022-11-14T13:07:39.062Z,18.13
2022-11-14T13:10:30.660Z,17.10
2022-11-14T13:13:35.842Z,17.85
2022-11-14T13:16:50.783Z,16.35
2022-11-14T13:20:04.593Z,16.17
2022-11-14T13:22:50.030Z,16.10
2022-11-14T13:25:35.548Z,15.30
2022-11-14T13:28:38.667Z,14.80
2022-11-14T13:31:36.262Z,14.15
2022-11-14T13:34:45.320Z,17.52
2022-11-14T13:37:42.793Z,16.50
2022-11-14T13:43:44.099Z,15.50
2022-11-14T13:46:55.045Z,15.30
2022-11-14T13:50:00.245Z,14.85
2022-11-14T13:52:48.772Z,15.10
2022-11-14T13:55:52.703Z,15.25
2022-11-14T13:59:22.571Z,14.85
2022-11-14T14:02:11.097Z,13.75
2022-11-14T14:05:11.157Z,15.13
2022-11-14T14:08:53.584Z,13.30
2022-11-14T14:11:57.216Z,15.10
2022-11-14T14:14:51.264Z,16.00
2022-11-14T14:17:43.458Z,15.10
2022-11-14T14:20:36.840Z,14.15
2022-11-14T14:23:31.155Z,14.63
2022-11-14T14:26:44.202Z,15.95
2022-11-14T14:29:56.056Z,14.10
2022-11-14T14:32:41.300Z,14.30
2022-11-14T14:35:31.854Z,15.55
2022-11-14T14:38:26.236Z,15.15
2022-11-14T14:41:14.529Z,14.27
2022-11-14T14:44:00.386Z,14.70
2022-11-14T14:46:45.501Z,14.48
2022-11-14T14:49:39.407Z,13.65
2022-11-14T14:52:34.464Z,13.65
2022-11-14T14:55:26.253Z,14.32
2022-11-14T14:58:23.721Z,14.55
2022-11-14T15:01:15.245Z,13.82
2022-11-14T15:04:09.138Z,13.65
2022-11-14T15:06:57.449Z,14.48
2022-11-14T15:10:01.764Z,15.43
2022-11-14T15:12:47.963Z,13.45
2022-11-14T15:15:34.650Z,14.07
2022-11-14T15:18:31.846Z,13.65
2022-11-14T15:21:20.837Z,13.10
2022-11-14T15:24:23.224Z,14.57
2022-11-14T15:27:20.487Z,13.82
2022-11-14T15:30:19.529Z,13.00
2022-11-14T15:33:25.045Z,13.35
2022-11-14T15:36:13.817Z,12.93
2022-11-14T15:39:24.689Z,12.25
2022-11-14T15:42:21.469Z,12.57
2022-11-14T15:45:28.752Z,12.00
2022-11-14T15:48:18.982Z,13.80
2022-11-14T15:51:04.581Z,13.35
2022-11-14T15:53:52.125Z,14.32
2022-11-14T15:56:37.460Z,12.38
2022-11-14T15:59:23.203Z,14.20
2022-11-14T16:02:58.523Z,14.70
2022-11-14T16:05:46.104Z,14.50
2022-11-14T16:08:31.784Z,15.32
2022-11-14T16:11:17.300Z,15.43
2022-11-14T16:14:02.643Z,13.43
2022-11-14T16:16:47.949Z,12.32
2022-11-14T16:19:33.141Z,12.05
2022-11-14T16:22:18.785Z,12.85
2022-11-14T16:25:04.823Z,14.20
2022-11-14T16:27:50.396Z,14.93
2022-11-14T16:30:35.721Z,14.77
2022-11-14T16:33:20.901Z,15.13
2022-11-14T16:36:06.672Z,15.38
2022-11-14T16:38:52.658Z,12.98
2022-11-14T16:41:38.925Z,15.27
2022-11-14T16:44:24.895Z,14.77
2022-11-14T16:47:14.709Z,16.73
2022-11-14T16:50:01.485Z,14.98
2022-11-14T16:52:46.980Z,15.80
2022-11-14T16:55:32.652Z,15.63
2022-11-14T16:58:18.101Z,15.18
2022-11-14T17:01:03.521Z,13.90
2022-11-14T17:03:49.374Z,14.35
2022-11-14T17:06:34.777Z,13.68
2022-11-14T17:09:20.029Z,13.93
2022-11-14T17:12:06.191Z,13.25
2022-11-14T17:14:51.483Z,13.23
2022-11-14T17:17:37.106Z,13.32
2022-11-14T17:20:22.232Z,12.93
2022-11-14T17:23:07.766Z,11.23
2022-11-14T17:25:53.790Z,12.35
2022-11-14T17:28:40.565Z,12.07
2022-11-14T17:31:26.188Z,11.68
2022-11-14T17:34:11.437Z,11.73
2022-11-14T17:36:56.979Z,10.85
2022-11-14T17:39:42.355Z,11.98
2022-11-14T17:42:28.053Z,11.65
2022-11-14T17:45:13.520Z,12.45
2022-11-14T17:47:59.453Z,10.63
2022-11-14T17:50:44.949Z,10.60
2022-11-14T17:53:32.555Z,10.98
2022-11-14T17:56:23.861Z,10.68
2022-11-14T17:59:09.532Z,10.60
2022-11-14T18:01:59.825Z,11.13
2022-11-14T18:04:46.431Z,11.27
2022-11-14T18:07:33.250Z,10.25
2022-11-14T18:10:18.674Z,10.60
2022-11-14T18:13:05.329Z,9.55
2022-11-14T18:15:50.605Z,10.93
2022-11-14T18:18:37.364Z,10.77
2022-11-14T18:21:24.876Z,12.57
2022-11-14T18:26:59.182Z,12.20
2022-11-14T18:29:44.659Z,12.15
2022-11-14T18:32:30.224Z,12.98
2022-11-14T18:35:15.778Z,13.23
2022-11-14T18:38:01.388Z,12.85
2022-11-14T18:40:47.060Z,13.35
2022-11-14T18:43:33.458Z,12.30
2022-11-14T18:46:21.752Z,12.43
2022-11-14T18:49:07.125Z,12.27
2022-11-14T18:51:52.317Z,13.20
2022-11-14T18:54:38.117Z,13.63
2022-11-14T18:57:23.584Z,12.68
2022-11-14T19:00:09.813Z,11.35
2022-11-14T19:02:54.929Z,11.80
2022-11-14T19:05:40.616Z,12.30
2022-11-14T19:08:26.132Z,11.55
2022-11-14T19:11:33.931Z,11.98
2022-11-14T19:14:20.723Z,11.88
2022-11-14T19:17:07.271Z,11.55
2022-11-14T19:19:55.828Z,11.23
2022-11-14T19:22:41.411Z,11.02
2022-11-14T19:25:27.290Z,11.70
2022-11-14T19:28:12.788Z,10.93
2022-11-14T19:31:02.854Z,10.00
2022-11-14T19:33:48.438Z,9.45
2022-11-14T19:39:39.850Z,10.13
2022-11-14T19:42:25.313Z,10.25
2022-11-14T19:45:11.028Z,9.98
2022-11-14T19:47:56.496Z,11.35
2022-11-14T19:50:41.933Z,11.00
2022-11-14T19:53:27.594Z,11.07
2022-11-14T19:56:18.037Z,10.38
2022-11-14T19:59:09.609Z,12.85
2022-11-14T20:01:56.426Z,10.50
2022-11-14T20:04:43.673Z,11.57
2022-11-14T20:07:30.438Z,11.52
2022-11-14T20:10:16.090Z,11.40
2022-11-14T20:13:01.549Z,10.85
2022-11-14T20:15:47.218Z,11.80
2022-11-14T20:18:32.653Z,11.07
2022-11-14T20:21:21.394Z,11.48
2022-11-14T20:24:06.958Z,10.80
2022-11-14T20:26:52.717Z,11.35
2022-11-14T20:29:38.298Z,11.45
2022-11-14T20:32:24.025Z,10.15
2022-11-14T20:35:09.484Z,10.63
2022-11-14T20:37:55.063Z,11.75
2022-11-14T20:40:40.477Z,9.93
2022-11-14T20:43:25.809Z,9.65
2022-11-14T20:46:16.554Z,10.13
2022-11-14T20:49:04.342Z,10.68
2022-11-14T20:51:49.833Z,10.57
2022-11-14T20:54:35.233Z,10.57
2022-11-14T20:57:21.079Z,9.65
2022-11-14T21:00:07.990Z,9.48
2022-11-14T21:02:53.808Z,10.32
2022-11-14T21:05:39.951Z,9.90
2022-11-14T21:08:25.665Z,10.05
2022-11-14T21:11:18.157Z,10.00
2022-11-14T21:14:04.723Z,10.57
2022-11-14T21:16:50.139Z,10.82
2022-11-14T21:19:35.528Z,10.38
2022-11-14T21:22:21.100Z,10.55
2022-11-14T21:25:06.852Z,10.18
2022-11-14T21:27:52.238Z,9.77
2022-11-14T21:30:37.618Z,9.85
2022-11-14T21:33:23.371Z,10.13
2022-11-14T21:36:30.115Z,9.75
2022-11-14T21:39:16.848Z,8.98
2022-11-14T21:42:03.161Z,8.77
2022-11-14T21:44:48.409Z,10.30
2022-11-14T21:47:34.522Z,9.68
2022-11-14T21:50:19.955Z,9.63
2022-11-14T21:53:16.023Z,9.10
2022-11-14T21:56:18.596Z,9.00
2022-11-14T21:59:13.902Z,9.10
2022-11-14T22:02:18.580Z,9.68
2022-11-14T22:05:04.071Z,8.73
2022-11-14T22:07:49.715Z,9.25
2022-11-14T22:10:35.318Z,9.13
2022-11-14T22:13:20.753Z,8.48
2022-11-14T22:16:07.344Z,9.32
2022-11-14T22:18:53.687Z,8.55
2022-11-14T22:21:39.029Z,9.60
2022-11-14T22:24:24.241Z,8.73
2022-11-14T22:27:10.019Z,9.00
2022-11-14T22:29:55.737Z,8.82
2022-11-14T22:32:41.032Z,8.68
2022-11-14T22:35:26.308Z,9.07
2022-11-14T22:38:11.758Z,8.43
2022-11-14T22:40:58.403Z,8.60
2022-11-14T22:43:43.877Z,8.83
2022-11-14T22:46:29.393Z,8.57
2022-11-14T22:49:19.692Z,7.45
2022-11-14T22:52:06.288Z,7.90
2022-11-14T22:54:51.724Z,7.43
2022-11-14T22:57:37.028Z,7.18
2022-11-14T23:00:22.397Z,7.03
2022-11-14T23:03:07.809Z,6.57
2022-11-14T23:05:53.404Z,6.63
2022-11-14T23:08:39.660Z,6.35
2022-11-14T23:11:27.208Z,6.18
2022-11-14T23:14:14.328Z,4.82
2022-11-14T23:16:59.824Z,5.07
2022-11-14T23:19:45.030Z,4.35
2022-11-14T23:22:30.418Z,5.88
2022-11-14T23:25:16.209Z,5.30
2022-11-14T23:28:01.737Z,5.72
2022-11-14T23:30:47.375Z,5.10
2022-11-14T23:33:33.384Z,5.15
2022-11-14T23:36:19.352Z,4.65
2022-11-14T23:39:04.834Z,4.63
2022-11-14T23:41:50.075Z,4.65
2022-11-14T23:44:35.504Z,4.07
2022-11-14T23:47:21.136Z,4.88
2022-11-14T23:50:06.767Z,5.18
2022-11-14T23:52:52.184Z,4.68
2022-11-14T23:55:38.367Z,4.38
2022-11-14T23:58:25.748Z,4.57
